createdAt,value
2023-05-03T00:01:14.481Z,3.95
2023-05-03T00:03:40.884Z,4.65
2023-05-03T00:06:15.265Z,3.72
2023-05-03T00:08:42.258Z,4.22
2023-05-03T00:11:09.584Z,4.40
2023-05-03T00:13:36.662Z,4.43
2023-05-03T00:16:03.572Z,4.45
2023-05-03T00:18:30.530Z,5.68
2023-05-03T00:20:58.865Z,4.70
2023-05-03T00:23:25.784Z,4.72
2023-05-03T00:25:54.022Z,4.95
2023-05-03T00:28:20.593Z,4.30
2023-05-03T00:30:47.301Z,5.20
2023-05-03T00:33:13.708Z,4.40
2023-05-03T00:35:40.289Z,4.47
2023-05-03T00:38:06.790Z,4.32
2023-05-03T00:40:33.396Z,5.18
2023-05-03T00:42:59.930Z,4.40
2023-05-03T00:45:26.644Z,4.50
2023-05-03T00:47:53.262Z,4.20
2023-05-03T00:50:19.948Z,4.55
2023-05-03T00:52:47.057Z,4.47
2023-05-03T00:55:15.430Z,4.60
2023-05-03T00:57:41.884Z,4.40
2023-05-03T01:00:13.388Z,4.63
2023-05-03T01:02:40.158Z,4.78
2023-05-03T01:05:07.376Z,4.90
2023-05-03T01:07:42.840Z,5.68
2023-05-03T01:10:31.731Z,5.13
2023-05-03T01:13:28.312Z,4.38
2023-05-03T01:16:12.076Z,5.18
2023-05-03T01:18:41.816Z,4.85
2023-05-03T01:21:09.937Z,5.70
2023-05-03T01:23:56.750Z,5.13
2023-05-03T01:26:24.948Z,5.13
2023-05-03T01:28:52.056Z,5.95
2023-05-03T01:31:37.254Z,5.63
2023-05-03T01:34:18.178Z,5.20
2023-05-03T01:36:45.846Z,5.60
2023-05-03T01:39:19.687Z,4.75
2023-05-03T01:41:49.770Z,5.85
2023-05-03T01:44:16.473Z,5.18
2023-05-03T01:46:46.377Z,5.20
2023-05-03T01:49:13.229Z,5.82
2023-05-03T01:51:39.868Z,5.18
2023-05-03T01:54:06.689Z,5.25
2023-05-03T01:56:34.890Z,5.82
2023-05-03T01:59:01.275Z,5.15
2023-05-03T02:01:27.726Z,5.50
2023-05-03T02:03:54.211Z,5.40
2023-05-03T02:06:20.774Z,5.60
2023-05-03T02:08:47.211Z,5.68
2023-05-03T02:11:13.706Z,5.25
2023-05-03T02:13:40.148Z,5.30
2023-05-03T02:16:06.736Z,4.90
2023-05-03T02:18:33.636Z,5.20
2023-05-03T02:21:00.086Z,5.95
2023-05-03T02:23:26.621Z,5.90
2023-05-03T02:25:53.027Z,5.75
2023-05-03T02:28:19.464Z,5.75
2023-05-03T02:30:45.959Z,5.80
2023-05-03T02:33:12.424Z,6.30
2023-05-03T02:35:38.911Z,5.70
2023-05-03T02:38:05.528Z,5.28
2023-05-03T02:40:32.504Z,5.55
2023-05-03T02:42:59.049Z,6.32
2023-05-03T02:45:25.500Z,5.93
2023-05-03T02:47:51.915Z,5.53
2023-05-03T02:50:18.420Z,5.82
2023-05-03T02:52:44.867Z,5.32
2023-05-03T02:55:11.345Z,6.25
2023-05-03T02:57:37.773Z,5.65
2023-05-03T03:00:07.976Z,5.68
2023-05-03T03:02:34.694Z,6.45
2023-05-03T03:05:01.281Z,5.40
2023-05-03T03:07:27.771Z,5.60
2023-05-03T03:09:54.245Z,6.10
2023-05-03T03:12:20.714Z,5.82
2023-05-03T03:14:47.112Z,6.10
2023-05-03T03:17:13.523Z,6.07
2023-05-03T03:19:40.084Z,6.35
2023-05-03T03:22:07.051Z,5.38
2023-05-03T03:24:33.492Z,6.50
2023-05-03T03:26:59.868Z,5.97
2023-05-03T03:29:26.273Z,6.80
2023-05-03T03:31:52.793Z,6.57
2023-05-03T03:34:19.240Z,6.85
2023-05-03T03:36:45.771Z,5.88
2023-05-03T03:39:12.152Z,5.97
2023-05-03T03:41:38.610Z,6.38
2023-05-03T03:44:05.234Z,5.90
2023-05-03T03:46:31.698Z,5.68
2023-05-03T03:48:58.226Z,5.95
2023-05-03T03:51:24.838Z,6.68
2023-05-03T03:53:51.476Z,6.90
2023-05-03T03:56:18.070Z,7.00
2023-05-03T03:58:44.505Z,6.80
2023-05-03T04:01:12.156Z,6.22
2023-05-03T04:03:38.714Z,6.13
2023-05-03T04:06:05.226Z,6.05
2023-05-03T04:08:31.854Z,6.70
2023-05-03T04:10:58.324Z,6.40
2023-05-03T04:13:24.684Z,6.55
2023-05-03T04:15:55.784Z,7.85
2023-05-03T04:18:22.961Z,6.47
2023-05-03T04:20:49.402Z,5.78
2023-05-03T04:23:16.171Z,7.30
2023-05-03T04:25:48.653Z,7.55
2023-05-03T04:28:15.558Z,7.63
2023-05-03T04:30:44.409Z,7.10
2023-05-03T04:33:11.252Z,6.85
2023-05-03T04:35:37.825Z,7.00
2023-05-03T04:38:04.336Z,6.25
2023-05-03T04:40:30.740Z,7.53
2023-05-03T04:42:57.622Z,7.13
2023-05-03T04:45:24.414Z,6.80
2023-05-03T04:47:50.934Z,7.38
2023-05-03T04:50:17.586Z,6.85
2023-05-03T04:52:45.016Z,7.25
2023-05-03T04:55:11.582Z,7.85
2023-05-03T04:57:37.970Z,7.55
2023-05-03T05:00:10.672Z,7.15
2023-05-03T05:02:37.423Z,7.88
2023-05-03T05:05:03.955Z,7.10
2023-05-03T05:07:30.398Z,7.50
2023-05-03T05:09:56.765Z,7.78
2023-05-03T05:12:23.409Z,7.65
2023-05-03T05:14:49.789Z,7.65
2023-05-03T05:17:16.325Z,7.20
2023-05-03T05:19:42.727Z,7.35
2023-05-03T05:22:09.143Z,7.45
2023-05-03T05:24:35.525Z,6.88
2023-05-03T05:27:01.959Z,7.72
2023-05-03T05:29:28.406Z,7.32
2023-05-03T05:31:55.502Z,8.55
2023-05-03T05:34:21.924Z,8.05
2023-05-03T05:36:48.443Z,7.97
2023-05-03T05:39:14.870Z,7.93
2023-05-03T05:41:41.272Z,7.93
2023-05-03T05:44:07.928Z,8.88
2023-05-03T05:46:34.648Z,8.45
2023-05-03T05:49:01.009Z,8.95
2023-05-03T05:51:27.992Z,8.48
2023-05-03T05:53:54.447Z,9.18
2023-05-03T05:56:20.828Z,8.80
2023-05-03T05:58:48.613Z,8.98
2023-05-03T06:01:15.400Z,7.70
2023-05-03T06:03:41.873Z,8.57
2023-05-03T06:06:08.592Z,8.20
2023-05-03T06:08:35.034Z,8.68
2023-05-03T06:11:01.658Z,8.98
2023-05-03T06:13:28.213Z,8.55
2023-05-03T06:15:54.616Z,9.23
2023-05-03T06:18:21.209Z,8.40
2023-05-03T06:20:50.756Z,9.02
2023-05-03T06:23:17.544Z,8.73
2023-05-03T06:25:47.156Z,9.15
2023-05-03T06:28:13.629Z,9.73
2023-05-03T06:30:40.444Z,10.07
2023-05-03T06:33:07.312Z,9.75
2023-05-03T06:35:33.749Z,9.05
2023-05-03T06:38:00.180Z,8.70
2023-05-03T06:40:27.596Z,8.70
2023-05-03T06:42:54.026Z,8.40
2023-05-03T06:45:20.503Z,8.20
2023-05-03T06:47:46.976Z,9.80
2023-05-03T06:50:13.963Z,8.32
2023-05-03T06:52:41.165Z,8.75
2023-05-03T06:55:08.263Z,8.82
2023-05-03T06:57:34.661Z,9.10
2023-05-03T07:00:01.133Z,7.97
2023-05-03T07:02:27.967Z,8.25
2023-05-03T07:04:54.534Z,8.10
2023-05-03T07:07:21.323Z,8.25
2023-05-03T07:09:47.939Z,7.57
2023-05-03T07:12:14.321Z,8.35
2023-05-03T07:14:41.047Z,7.68
2023-05-03T07:17:07.986Z,8.20
2023-05-03T07:19:34.667Z,8.13
2023-05-03T07:22:03.117Z,7.90
2023-05-03T07:24:29.838Z,7.75
2023-05-03T07:26:58.020Z,7.97
2023-05-03T07:29:24.448Z,7.47
2023-05-03T07:31:53.336Z,8.25
2023-05-03T07:34:20.133Z,7.78
2023-05-03T07:36:46.579Z,8.07
2023-05-03T07:39:12.971Z,8.27
2023-05-03T07:41:39.502Z,7.53
2023-05-03T07:44:05.870Z,7.95
2023-05-03T07:46:34.914Z,7.55
2023-05-03T07:49:05.301Z,8.43
2023-05-03T07:51:35.929Z,8.30
2023-05-03T07:54:02.681Z,7.30
2023-05-03T07:56:29.426Z,7.88
2023-05-03T07:59:07.503Z,7.68
2023-05-03T08:01:36.078Z,7.93
2023-05-03T08:04:02.569Z,7.82
2023-05-03T08:06:29.456Z,7.72
2023-05-03T08:08:56.146Z,8.10
2023-05-03T08:11:22.605Z,7.72
2023-05-03T08:13:49.069Z,8.38
2023-05-03T08:16:16.421Z,7.15
2023-05-03T08:18:42.943Z,7.55
2023-05-03T08:21:11.998Z,8.10
2023-05-03T08:23:38.391Z,7.57
2023-05-03T08:26:07.476Z,7.22
2023-05-03T08:28:34.277Z,7.35
2023-05-03T08:31:03.354Z,7.10
2023-05-03T08:33:29.815Z,6.82
2023-05-03T08:35:56.219Z,6.68
2023-05-03T08:38:22.735Z,7.15
2023-05-03T08:40:51.481Z,7.45
2023-05-03T08:43:20.515Z,6.45
2023-05-03T08:45:47.313Z,6.65
2023-05-03T08:48:14.421Z,7.25
2023-05-03T08:50:44.485Z,7.05
2023-05-03T08:53:11.805Z,7.13
2023-05-03T08:55:38.886Z,7.43
2023-05-03T08:58:12.401Z,7.85
2023-05-03T09:00:39.046Z,6.30
2023-05-03T09:03:07.545Z,7.85
2023-05-03T09:05:35.490Z,7.22
2023-05-03T09:08:04.112Z,7.13
2023-05-03T09:10:32.253Z,6.53
2023-05-03T09:13:02.954Z,6.85
2023-05-03T09:15:30.773Z,6.60
2023-05-03T09:18:20.990Z,6.70
2023-05-03T09:20:52.286Z,7.00
2023-05-03T09:23:29.708Z,7.22
2023-05-03T09:25:56.958Z,6.70
2023-05-03T09:28:58.180Z,6.80
2023-05-03T09:31:24.823Z,6.38
2023-05-03T09:33:53.352Z,7.20
2023-05-03T09:36:19.935Z,6.22
2023-05-03T09:38:46.464Z,6.25
2023-05-03T09:41:12.961Z,7.25
2023-05-03T09:43:55.421Z,7.03
2023-05-03T09:46:24.710Z,7.25
2023-05-03T09:48:54.126Z,6.32
2023-05-03T09:51:23.279Z,7.07
2023-05-03T09:53:50.615Z,7.00
2023-05-03T09:56:20.504Z,6.93
2023-05-03T09:58:47.248Z,6.57
2023-05-03T10:01:16.258Z,6.15
2023-05-03T10:03:45.186Z,6.50
2023-05-03T10:06:23.170Z,6.10
2023-05-03T10:08:54.800Z,6.72
2023-05-03T10:11:24.331Z,6.30
2023-05-03T10:13:51.004Z,6.65
2023-05-03T10:16:24.099Z,5.63
2023-05-03T10:19:04.505Z,6.20
2023-05-03T10:22:09.790Z,6.28
2023-05-03T10:24:57.276Z,6.30
2023-05-03T10:27:24.141Z,6.70
2023-05-03T10:29:52.058Z,5.97
2023-05-03T10:32:29.729Z,5.53
2023-05-03T10:35:12.503Z,5.95
2023-05-03T10:37:41.611Z,5.35
2023-05-03T10:40:13.876Z,6.53
2023-05-03T10:42:44.600Z,5.75
2023-05-03T10:45:24.566Z,5.22
2023-05-03T10:48:13.047Z,5.90
2023-05-03T10:50:40.508Z,5.03
2023-05-03T10:53:07.665Z,5.03
2023-05-03T10:55:34.318Z,5.35
2023-05-03T10:58:01.908Z,6.38
2023-05-03T11:00:38.364Z,5.75
2023-05-03T11:03:10.967Z,6.07
2023-05-03T11:05:38.510Z,6.97
2023-05-03T11:08:19.827Z,5.70
2023-05-03T11:10:56.891Z,6.85
2023-05-03T11:13:23.561Z,6.72
2023-05-03T11:15:50.584Z,6.57
2023-05-03T11:18:17.066Z,7.53
2023-05-03T11:20:43.991Z,7.13
2023-05-03T11:23:12.139Z,6.10
2023-05-03T11:25:39.234Z,6.72
2023-05-03T11:28:05.933Z,5.03
2023-05-03T11:30:37.303Z,6.07
2023-05-03T11:33:04.255Z,5.53
2023-05-03T11:35:31.908Z,5.80
2023-05-03T11:37:58.535Z,5.70
2023-05-03T11:40:26.041Z,5.47
2023-05-03T11:42:54.489Z,5.07
2023-05-03T11:45:23.394Z,5.30
2023-05-03T11:47:51.012Z,5.65
2023-05-03T11:50:18.595Z,5.15
2023-05-03T11:52:45.762Z,4.93
2023-05-03T11:55:12.371Z,6.00
2023-05-03T11:57:39.036Z,5.80
2023-05-03T12:00:17.251Z,5.05
2023-05-03T12:02:45.226Z,5.45
2023-05-03T12:05:13.101Z,5.53
2023-05-03T12:07:41.357Z,5.15
2023-05-03T12:10:23.047Z,5.50
2023-05-03T12:12:56.515Z,5.30
2023-05-03T12:15:34.922Z,4.85
2023-05-03T12:18:09.610Z,5.10
2023-05-03T12:23:10.353Z,4.90
2023-05-03T12:25:39.553Z,5.55
2023-05-03T12:28:19.554Z,5.38
2023-05-03T12:30:47.284Z,4.75
2023-05-03T12:33:16.081Z,4.43
2023-05-03T12:35:46.780Z,4.63
2023-05-03T12:38:16.494Z,3.80
2023-05-03T12:40:45.416Z,3.67
2023-05-03T12:43:12.571Z,3.28
2023-05-03T12:45:40.806Z,4.15
2023-05-03T12:48:08.776Z,4.20
2023-05-03T12:50:38.730Z,3.90
2023-05-03T12:53:08.877Z,4.93
2023-05-03T12:55:41.871Z,4.88
2023-05-03T13:00:48.712Z,4.70
2023-05-03T13:03:32.671Z,4.43
2023-05-03T13:06:00.702Z,4.25
2023-05-03T13:08:33.839Z,3.92
2023-05-03T13:11:01.828Z,4.53
2023-05-03T13:13:28.620Z,4.88
2023-05-03T13:15:55.416Z,3.92
2023-05-03T13:18:22.815Z,4.40
2023-05-03T13:20:50.408Z,4.43
2023-05-03T13:23:17.004Z,4.80
2023-05-03T13:25:44.487Z,5.03
2023-05-03T13:28:11.087Z,3.97
2023-05-03T13:30:37.558Z,4.22
2023-05-03T13:33:04.113Z,4.18
2023-05-03T13:35:30.898Z,3.75
2023-05-03T13:37:57.781Z,3.80
2023-05-03T13:40:24.709Z,3.72
2023-05-03T13:42:51.637Z,3.53
2023-05-03T13:45:18.639Z,3.13
2023-05-03T13:50:14.881Z,4.05
2023-05-03T13:52:42.388Z,3.40
2023-05-03T13:55:09.272Z,3.88
2023-05-03T13:57:36.180Z,3.45
2023-05-03T14:00:03.051Z,3.78
2023-05-03T14:02:29.682Z,3.42
2023-05-03T14:04:56.155Z,3.53
2023-05-03T14:07:22.585Z,3.67
2023-05-03T14:09:48.961Z,3.22
2023-05-03T14:12:16.171Z,4.00
2023-05-03T14:14:42.688Z,4.10
2023-05-03T14:17:09.276Z,2.90
2023-05-03T14:19:36.637Z,3.47
2023-05-03T14:22:04.288Z,3.63
2023-05-03T14:24:31.413Z,3.83
2023-05-03T14:26:59.869Z,3.60
2023-05-03T14:29:26.310Z,3.47
2023-05-03T14:31:52.766Z,3.47
2023-05-03T14:34:19.734Z,3.67
2023-05-03T14:36:46.276Z,3.30
2023-05-03T14:39:14.609Z,3.38
2023-05-03T14:41:45.104Z,3.53
2023-05-03T14:44:11.683Z,3.13
2023-05-03T14:46:38.163Z,2.88
2023-05-03T14:49:05.056Z,3.40
2023-05-03T14:51:32.357Z,3.00
2023-05-03T14:53:59.294Z,2.85
2023-05-03T14:56:26.000Z,3.03
2023-05-03T14:58:52.378Z,3.42
2023-05-03T15:01:19.981Z,3.10
2023-05-03T15:03:46.705Z,2.97
2023-05-03T15:06:13.160Z,3.35
2023-05-03T15:08:39.658Z,3.97
2023-05-03T15:11:07.693Z,3.20
2023-05-03T15:13:34.642Z,3.15
2023-05-03T15:16:01.169Z,3.47
2023-05-03T15:18:27.636Z,3.08
2023-05-03T15:20:54.126Z,3.05
2023-05-03T15:23:20.716Z,3.05
2023-05-03T15:25:47.130Z,2.83
2023-05-03T15:28:13.570Z,2.78
2023-05-03T15:30:40.004Z,3.55
2023-05-03T15:33:06.609Z,3.35
2023-05-03T15:35:33.209Z,2.95
2023-05-03T15:37:59.591Z,2.92
2023-05-03T15:40:27.223Z,2.88
2023-05-03T15:42:53.876Z,2.60
2023-05-03T15:45:22.909Z,2.63
2023-05-03T15:47:49.586Z,2.70
2023-05-03T15:50:16.102Z,3.10
2023-05-03T15:52:42.740Z,2.33
2023-05-03T15:55:09.782Z,2.63
2023-05-03T15:57:36.268Z,2.78
2023-05-03T16:00:13.127Z,2.78
2023-05-03T16:02:40.258Z,2.50
2023-05-03T16:05:07.434Z,3.13
2023-05-03T16:07:33.977Z,2.80
2023-05-03T16:10:00.790Z,2.70
2023-05-03T16:12:27.807Z,3.08
2023-05-03T16:14:54.715Z,2.33
2023-05-03T16:17:21.930Z,2.45
2023-05-03T16:19:48.728Z,2.38
2023-05-03T16:22:15.340Z,2.75
2023-05-03T16:24:41.858Z,2.30
2023-05-03T16:27:08.396Z,2.40
2023-05-03T16:29:36.888Z,2.60
2023-05-03T16:32:04.333Z,2.67
2023-05-03T16:34:31.457Z,2.75
2023-05-03T16:36:58.399Z,2.63
2023-05-03T16:39:24.891Z,2.58
2023-05-03T16:41:51.248Z,2.65
2023-05-03T16:44:19.196Z,3.10
2023-05-03T16:46:46.668Z,2.63
2023-05-03T16:49:13.554Z,2.70
2023-05-03T16:51:43.224Z,2.80
2023-05-03T16:54:09.856Z,2.33
2023-05-03T16:56:36.915Z,2.85
2023-05-03T16:59:03.867Z,2.80
2023-05-03T17:01:30.440Z,2.65
2023-05-03T17:03:57.262Z,3.03
2023-05-03T17:06:23.666Z,2.58
2023-05-03T17:08:50.259Z,2.65
2023-05-03T17:11:16.674Z,2.42
2023-05-03T17:13:43.294Z,2.67
2023-05-03T17:16:12.620Z,2.33
2023-05-03T17:18:40.226Z,2.65
2023-05-03T17:21:09.949Z,2.60
2023-05-03T17:23:38.423Z,2.60
2023-05-03T17:26:06.998Z,2.38
2023-05-03T17:28:33.609Z,2.38
2023-05-03T17:31:00.523Z,2.42
2023-05-03T17:33:27.293Z,2.50
2023-05-03T17:35:55.625Z,3.10
2023-05-03T17:38:23.064Z,2.58
2023-05-03T17:40:49.656Z,2.92
2023-05-03T17:43:17.563Z,2.53
2023-05-03T17:45:45.716Z,2.58
2023-05-03T17:48:12.519Z,2.80
2023-05-03T17:50:39.079Z,2.63
2023-05-03T17:53:05.934Z,2.53
2023-05-03T17:55:36.044Z,3.28
2023-05-03T17:58:03.180Z,2.35
2023-05-03T18:00:29.758Z,2.38
2023-05-03T18:02:56.284Z,2.47
2023-05-03T18:05:23.042Z,2.55
2023-05-03T18:07:49.591Z,2.58
2023-05-03T18:10:17.419Z,2.95
2023-05-03T18:12:44.010Z,2.72
2023-05-03T18:15:11.321Z,2.53
2023-05-03T18:17:38.143Z,2.55
2023-05-03T18:20:06.460Z,3.28
2023-05-03T18:22:33.355Z,2.83
2023-05-03T18:25:02.149Z,2.95
2023-05-03T18:27:28.827Z,2.08
2023-05-03T18:29:55.252Z,2.60
2023-05-03T18:32:23.507Z,2.88
2023-05-03T18:34:49.952Z,2.90
2023-05-03T18:37:16.443Z,2.50
2023-05-03T18:39:42.851Z,2.55
2023-05-03T18:42:10.130Z,3.17
2023-05-03T18:44:38.430Z,3.00
2023-05-03T18:47:05.195Z,2.58
2023-05-03T18:49:31.671Z,3.03
2023-05-03T18:51:58.052Z,2.33
2023-05-03T18:54:24.407Z,2.55
2023-05-03T18:56:50.930Z,2.50
2023-05-03T18:59:17.426Z,2.58
2023-05-03T19:01:44.208Z,2.65
2023-05-03T19:04:10.704Z,2.45
2023-05-03T19:06:37.207Z,2.63
2023-05-03T19:09:03.923Z,2.72
2023-05-03T19:11:30.493Z,2.58
2023-05-03T19:13:56.937Z,2.97
2023-05-03T19:16:23.398Z,2.67
2023-05-03T19:18:49.929Z,3.05
2023-05-03T19:21:17.313Z,3.67
2023-05-03T19:23:44.363Z,2.88
2023-05-03T19:26:10.907Z,3.55
2023-05-03T19:28:37.398Z,3.10
2023-05-03T19:31:05.013Z,3.63
2023-05-03T19:33:31.856Z,3.05
2023-05-03T19:35:58.747Z,3.40
2023-05-03T19:38:25.280Z,3.17
2023-05-03T19:40:56.488Z,3.35
2023-05-03T19:45:49.576Z,3.65
2023-05-03T19:48:16.669Z,3.13
2023-05-03T19:50:44.350Z,3.65
2023-05-03T19:53:11.330Z,3.42
2023-05-03T19:55:37.732Z,4.40
2023-05-03T19:58:04.097Z,3.22
2023-05-03T20:00:30.743Z,3.15
2023-05-03T20:02:57.191Z,3.90
2023-05-03T20:05:23.742Z,3.38
2023-05-03T20:07:52.450Z,3.80
2023-05-03T20:10:18.834Z,3.97
2023-05-03T20:12:45.420Z,3.63
2023-05-03T20:15:11.949Z,3.55
2023-05-03T20:17:38.843Z,4.50
2023-05-03T20:20:12.363Z,4.22
2023-05-03T20:22:38.770Z,3.90
2023-05-03T20:25:05.937Z,4.20
2023-05-03T20:27:32.369Z,4.43
2023-05-03T20:29:59.010Z,3.65
2023-05-03T20:32:25.724Z,4.03
2023-05-03T20:34:52.283Z,3.67
2023-05-03T20:37:18.782Z,4.68
2023-05-03T20:39:45.274Z,4.10
2023-05-03T20:42:11.708Z,4.00
2023-05-03T20:44:38.326Z,3.90
2023-05-03T20:47:05.067Z,4.07
2023-05-03T20:49:31.472Z,3.58
2023-05-03T20:51:57.929Z,4.78
2023-05-03T20:54:24.995Z,3.90
2023-05-03T20:56:51.539Z,3.47
2023-05-03T20:59:17.962Z,4.15
2023-05-03T21:01:44.494Z,3.10
2023-05-03T21:04:11.142Z,3.95
2023-05-03T21:06:38.157Z,3.38
2023-05-03T21:09:05.075Z,3.88
2023-05-03T21:11:31.771Z,3.35
2023-05-03T21:14:00.225Z,3.45
2023-05-03T21:16:28.043Z,3.78
2023-05-03T21:18:54.485Z,3.10
2023-05-03T21:21:21.121Z,3.33
2023-05-03T21:23:47.569Z,3.40
2023-05-03T21:26:15.091Z,3.70
2023-05-03T21:28:41.486Z,3.08
2023-05-03T21:31:08.051Z,3.80
2023-05-03T21:33:34.878Z,3.55
2023-05-03T21:36:01.400Z,3.17
2023-05-03T21:38:28.156Z,3.50
2023-05-03T21:41:07.604Z,3.55
2023-05-03T21:43:35.378Z,4.50
2023-05-03T21:46:04.006Z,3.92
2023-05-03T21:48:31.370Z,3.88
2023-05-03T21:50:57.815Z,3.83
2023-05-03T21:53:24.437Z,3.55
2023-05-03T21:55:50.867Z,3.45
2023-05-03T21:58:17.487Z,4.13
2023-05-03T22:00:44.426Z,3.85
2023-05-03T22:03:11.046Z,4.57
2023-05-03T22:05:39.529Z,4.03
2023-05-03T22:08:06.205Z,3.58
2023-05-03T22:10:32.993Z,4.75
2023-05-03T22:12:59.835Z,4.00
2023-05-03T22:15:26.649Z,4.60
2023-05-03T22:17:53.095Z,4.90
2023-05-03T22:20:19.621Z,4.18
2023-05-03T22:22:45.975Z,4.53
2023-05-03T22:25:23.150Z,5.20
2023-05-03T22:27:50.080Z,3.58
2023-05-03T22:30:16.935Z,3.78
2023-05-03T22:32:43.504Z,4.00
2023-05-03T22:35:10.428Z,3.80
2023-05-03T22:37:36.905Z,3.95
2023-05-03T22:40:04.397Z,4.35
2023-05-03T22:42:31.471Z,4.70
2023-05-03T22:44:58.549Z,4.13
2023-05-03T22:47:24.986Z,4.05
2023-05-03T22:49:51.934Z,4.20
2023-05-03T22:52:18.578Z,3.88
2023-05-03T22:54:45.019Z,3.95
2023-05-03T22:57:11.472Z,4.28
2023-05-03T22:59:37.912Z,4.68
2023-05-03T23:02:04.417Z,4.60
2023-05-03T23:04:30.786Z,4.63
2023-05-03T23:06:57.572Z,4.50
2023-05-03T23:09:23.945Z,3.97
2023-05-03T23:11:50.367Z,3.90
2023-05-03T23:14:16.736Z,4.47
2023-05-03T23:16:43.265Z,4.47
2023-05-03T23:19:09.854Z,4.45
2023-05-03T23:21:36.312Z,4.32
2023-05-03T23:24:03.244Z,4.45
2023-05-03T23:26:29.758Z,4.80
2023-05-03T23:28:56.533Z,4.60
2023-05-03T23:31:23.538Z,5.30
2023-05-03T23:33:50.384Z,4.90
2023-05-03T23:36:17.014Z,4.05
2023-05-03T23:38:43.474Z,4.85
2023-05-03T23:41:09.959Z,5.00
2023-05-03T23:43:36.392Z,4.35
2023-05-03T23:46:02.882Z,5.15
2023-05-03T23:48:31.335Z,4.03
2023-05-03T23:50:57.820Z,4.65
2023-05-03T23:53:24.274Z,5.07
2023-05-03T23:55:50.692Z,4.15
2023-05-03T23:58:17.140Z,4.20
